This is the latest recevied weather packets stored in our database for station/object AA8FM-13. If no packets are shown the sender has not sent any weather packets the latest 10 day(s).
| Time | Temp. | Humidity | Pressure | Rain* | Wind** | Luminosity | Snow |
|---|---|---|---|---|---|---|---|
| 1777616009 | 2.22° C | 99% | 1012.5 hPa | 0 mm | - | 0 W/m² | - |
| 1777615706 | 2.22° C | 99% | 1012.3 hPa | 0 mm | - | 0 W/m² | - |
| 1777615403 | 2.78° C | 99% | 1012.8 hPa | 0 mm | - | 0 W/m² | - |
| 1777615102 | 2.78° C | 99% | 1012.6 hPa | 0 mm | - | 0 W/m² | - |
| 1777614798 | 2.78° C | 99% | 1012.8 hPa | 0 mm | - | 0 W/m² | - |
| 1777614495 | 2.78° C | 99% | 1012.6 hPa | 0 mm | - | 0 W/m² | - |
| 1777614189 | 3.33° C | 99% | 1012.8 hPa | 0 mm | - | 0 W/m² | - |
| 1777613884 | 3.33° C | 99% | 1012.6 hPa | 0 mm | - | 0 W/m² | - |
| 1777613582 | 3.33° C | 99% | 1012.9 hPa | 0 mm | - | 0 W/m² | - |
| 1777613278 | 3.33° C | 99% | 1012.6 hPa | 0 mm | - | 0 W/m² | - |
| 1777612975 | 3.33° C | 99% | 1012.8 hPa | 0 mm | - | 0 W/m² | - |
| 1777612670 | 3.89° C | 99% | 1012.8 hPa | 0 mm | - | 0 W/m² | - |
| 1777612367 | 3.33° C | 99% | 1012.8 hPa | 0 mm | - | 0 W/m² | - |
| 1777612063 | 3.33° C | 99% | 1012.9 hPa | 0 mm | - | 0 W/m² | - |
| 1777611758 | 3.33° C | 99% | 1012.6 hPa | 0 mm | - | 0 W/m² | - |
| 1777611455 | 3.33° C | 99% | 1012.6 hPa | 0 mm | - | 0 W/m² | - |
| 1777611152 | 3.89° C | 99% | 1013 hPa | 0 mm | - | 0 W/m² | - |
| 1777610847 | 3.89° C | 99% | 1013 hPa | 0 mm | - | 0 W/m² | - |
| 1777610543 | 3.33° C | 99% | 1012.6 hPa | 0 mm | - | 0 W/m² | - |
| 1777610237 | 3.89° C | 99% | 1012.8 hPa | 0 mm | - | 0 W/m² | - |
| 1777609935 | 3.89° C | 99% | 1012.8 hPa | 0 mm | - | 0 W/m² | - |
| 1777609631 | 4.44° C | 99% | 1013 hPa | 0 mm | - | 0 W/m² | - |
| 1777609328 | 4.44° C | 99% | 1013 hPa | 0 mm | - | 0 W/m² | - |
| 1777609025 | 3.89° C | 99% | 1013 hPa | 0 mm | - | 0 W/m² | - |
| 1777608723 | 3.89° C | 99% | 1013.1 hPa | 0 mm | - | 0 W/m² | - |
* Rain latest hour (hover to see other rain measurements)
** Current wind speed in m/s (hover to see current wind gust speed)